Time,TemperatureF,DewpointF,PressureIn,WindDirection,WindDirectionDegrees,WindSpeedMPH,WindSpeedGustMPH,Humidity,HourlyPrecipIn,Conditions,Clouds,dailyrainin,SoftwareType,DateUTC
2013-02-26 00:00:00,31.0,29.0,30.24,East,100,1.0,-999.0,91,-99.99,,,-99.99,,2013-02-26 00:00:00,
2013-02-26 00:21:00,31.0,29.0,30.24,East,100,1.0,-999.0,91,-99.99,,,-99.99,,2013-02-26 00:21:00,
2013-02-26 00:31:00,31.0,29.0,30.24,East,100,1.0,-999.0,91,-99.99,,,-99.99,,2013-02-26 00:31:00,
2013-02-26 00:41:00,31.0,29.0,30.24,East,100,1.0,-999.0,91,-99.99,,,-99.99,,2013-02-26 00:41:00,
2013-02-26 00:51:00,31.0,29.0,30.24,East,100,1.0,-999.0,91,-99.99,,,-99.99,,2013-02-26 00:51:00,
2013-02-26 01:00:00,31.0,29.0,30.25,ESE,120,1.0,-999.0,91,-99.99,,,-99.99,,2013-02-26 01:00:00,
2013-02-26 01:21:00,31.0,29.0,30.25,ESE,120,1.0,-999.0,91,-99.99,,,-99.99,,2013-02-26 01:21:00,
2013-02-26 01:31:00,31.0,29.0,30.25,ESE,120,1.0,-999.0,91,-99.99,,,-99.99,,2013-02-26 01:31:00,
2013-02-26 01:41:00,31.0,29.0,30.25,ESE,120,1.0,-999.0,91,-99.99,,,-99.99,,2013-02-26 01:41:00,
2013-02-26 01:51:00,31.0,29.0,30.25,ESE,120,1.0,-999.0,91,-99.99,,,-99.99,,2013-02-26 01:51:00,
2013-02-26 02:00:00,30.0,27.0,30.24,ENE,70,2.0,-999.0,90,-99.99,,,-99.99,,2013-02-26 02:00:00,
2013-02-26 02:21:00,30.0,27.0,30.24,ENE,70,2.0,-999.0,90,-99.99,,,-99.99,,2013-02-26 02:21:00,
2013-02-26 02:31:00,30.0,27.0,30.24,ENE,70,2.0,-999.0,90,-99.99,,,-99.99,,2013-02-26 02:31:00,
2013-02-26 02:41:00,30.0,27.0,30.24,ENE,70,2.0,-999.0,90,-99.99,,,-99.99,,2013-02-26 02:41:00,
2013-02-26 02:51:00,30.0,27.0,30.24,ENE,70,2.0,-999.0,90,-99.99,,,-99.99,,2013-02-26 02:51:00,
2013-02-26 03:00:00,28.0,26.0,30.25,ENE,60,2.0,-999.0,91,-99.99,,,-99.99,,2013-02-26 03:00:00,
2013-02-26 03:21:00,28.0,26.0,30.25,ENE,60,2.0,-999.0,91,-99.99,,,-99.99,,2013-02-26 03:21:00,
2013-02-26 03:31:00,28.0,26.0,30.25,ENE,60,2.0,-999.0,91,-99.99,,,-99.99,,2013-02-26 03:31:00,
2013-02-26 03:41:00,28.0,26.0,30.25,ENE,60,2.0,-999.0,91,-99.99,,,-99.99,,2013-02-26 03:41:00,
2013-02-26 03:51:00,28.0,26.0,30.25,ENE,60,2.0,-999.0,91,-99.99,,,-99.99,,2013-02-26 03:51:00,
2013-02-26 04:00:00,28.0,26.0,30.24,ENE,60,6.0,-999.0,91,-99.99,,,-99.99,,2013-02-26 04:00:00,
2013-02-26 04:21:00,28.0,26.0,30.24,ENE,60,6.0,-999.0,91,-99.99,,,-99.99,,2013-02-26 04:21:00,
2013-02-26 04:31:00,28.0,26.0,30.24,ENE,60,6.0,-999.0,91,-99.99,,,-99.99,,2013-02-26 04:31:00,
2013-02-26 04:42:00,28.0,26.0,30.24,ENE,60,6.0,-999.0,91,-99.99,,,-99.99,,2013-02-26 04:42:00,
2013-02-26 04:51:00,28.0,26.0,30.24,ENE,60,6.0,-999.0,91,-99.99,,,-99.99,,2013-02-26 04:51:00,
2013-02-26 05:00:00,29.0,24.0,30.20,ENE,70,7.0,-999.0,83,-99.99,,,-99.99,,2013-02-26 05:00:00,
2013-02-26 05:21:00,29.0,24.0,30.20,ENE,70,7.0,-999.0,83,-99.99,,,-99.99,,2013-02-26 05:21:00,
2013-02-26 05:31:00,29.0,24.0,30.20,ENE,70,7.0,-999.0,83,-99.99,,,-99.99,,2013-02-26 05:31:00,
2013-02-26 05:42:00,29.0,24.0,30.20,ENE,70,7.0,-999.0,83,-99.99,,,-99.99,,2013-02-26 05:42:00,
2013-02-26 05:52:00,29.0,24.0,30.20,ENE,70,7.0,-999.0,83,-99.99,,,-99.99,,2013-02-26 05:52:00,
2013-02-26 06:00:00,28.0,24.0,30.23,ENE,60,7.0,-999.0,84,-99.99,,,-99.99,,2013-02-26 06:00:00,
2013-02-26 06:21:00,28.0,24.0,30.23,ENE,60,7.0,-999.0,84,-99.99,,,-99.99,,2013-02-26 06:21:00,
2013-02-26 06:31:00,28.0,24.0,30.23,ENE,60,7.0,-999.0,84,-99.99,,,-99.99,,2013-02-26 06:31:00,
2013-02-26 06:41:00,28.0,24.0,30.23,ENE,60,7.0,-999.0,84,-99.99,,,-99.99,,2013-02-26 06:41:00,
2013-02-26 06:51:00,28.0,24.0,30.23,ENE,60,7.0,-999.0,84,-99.99,,,-99.99,,2013-02-26 06:51:00,
2013-02-26 07:00:00,28.0,24.0,30.23,ENE,60,7.0,-999.0,84,-99.99,,,-99.99,,2013-02-26 07:00:00,
2013-02-26 07:21:00,28.0,24.0,30.23,ENE,60,7.0,-999.0,84,-99.99,,,-99.99,,2013-02-26 07:21:00,
2013-02-26 07:31:00,28.0,24.0,30.23,ENE,60,7.0,-999.0,84,-99.99,,,-99.99,,2013-02-26 07:31:00,
2013-02-26 07:41:00,28.0,24.0,30.23,ENE,60,7.0,-999.0,84,-99.99,,,-99.99,,2013-02-26 07:41:00,
2013-02-26 07:51:00,28.0,24.0,30.23,ENE,60,7.0,-999.0,84,-99.99,,,-99.99,,2013-02-26 07:51:00,
2013-02-26 08:00:00,28.0,23.0,30.20,ENE,60,8.0,-999.0,79,-99.99,,,-99.99,,2013-02-26 08:00:00,
2013-02-26 08:21:00,28.0,23.0,30.20,ENE,60,8.0,-999.0,79,-99.99,,,-99.99,,2013-02-26 08:21:00,
2013-02-26 08:31:00,28.0,23.0,30.20,ENE,60,8.0,-999.0,79,-99.99,,,-99.99,,2013-02-26 08:31:00,
2013-02-26 08:41:00,28.0,23.0,30.20,ENE,60,8.0,-999.0,79,-99.99,,,-99.99,,2013-02-26 08:41:00,
2013-02-26 08:51:00,28.0,23.0,30.20,ENE,60,8.0,-999.0,79,-99.99,,,-99.99,,2013-02-26 08:51:00,
2013-02-26 09:00:00,29.0,23.0,30.19,ENE,70,7.0,-999.0,77,-99.99,,,-99.99,,2013-02-26 09:00:00,
2013-02-26 09:21:00,29.0,23.0,30.19,ENE,70,7.0,-999.0,77,-99.99,,,-99.99,,2013-02-26 09:21:00,
2013-02-26 09:31:00,29.0,23.0,30.19,ENE,70,7.0,-999.0,77,-99.99,,,-99.99,,2013-02-26 09:31:00,
2013-02-26 09:42:00,29.0,23.0,30.19,ENE,70,7.0,-999.0,77,-99.99,,,-99.99,,2013-02-26 09:42:00,
2013-02-26 09:51:00,29.0,23.0,30.19,ENE,70,7.0,-999.0,77,-99.99,,,-99.99,,2013-02-26 09:51:00,
2013-02-26 10:00:00,28.0,22.0,30.19,ENE,60,8.0,-999.0,78,-99.99,,,-99.99,,2013-02-26 10:00:00,
2013-02-26 10:21:00,28.0,22.0,30.19,ENE,60,8.0,-999.0,78,-99.99,,,-99.99,,2013-02-26 10:21:00,
2013-02-26 10:31:00,28.0,22.0,30.19,ENE,60,8.0,-999.0,78,-99.99,,,-99.99,,2013-02-26 10:31:00,
2013-02-26 10:41:00,28.0,22.0,30.19,ENE,60,8.0,-999.0,78,-99.99,,,-99.99,,2013-02-26 10:41:00,
2013-02-26 10:51:00,28.0,22.0,30.19,ENE,60,8.0,-999.0,78,-99.99,,,-99.99,,2013-02-26 10:51:00,
2013-02-26 11:00:00,28.0,23.0,30.17,ENE,60,8.0,-999.0,80,-99.99,,,-99.99,,2013-02-26 11:00:00,
2013-02-26 11:21:00,28.0,23.0,30.17,ENE,60,8.0,-999.0,80,-99.99,,,-99.99,,2013-02-26 11:21:00,
2013-02-26 11:31:00,28.0,23.0,30.17,ENE,60,8.0,-999.0,80,-99.99,,,-99.99,,2013-02-26 11:31:00,
2013-02-26 11:41:00,28.0,23.0,30.17,ENE,60,8.0,-999.0,80,-99.99,,,-99.99,,2013-02-26 11:41:00,
2013-02-26 11:52:00,28.0,23.0,30.17,ENE,60,8.0,-999.0,80,-99.99,,,-99.99,,2013-02-26 11:52:00,
2013-02-26 12:00:00,28.0,22.0,30.15,ENE,60,7.0,-999.0,79,-99.99,,,-99.99,,2013-02-26 12:00:00,
2013-02-26 12:21:00,28.0,22.0,30.15,ENE,60,7.0,-999.0,79,-99.99,,,-99.99,,2013-02-26 12:21:00,
2013-02-26 12:32:00,28.0,22.0,30.15,ENE,60,7.0,-999.0,79,-99.99,,,-99.99,,2013-02-26 12:32:00,
2013-02-26 12:41:00,28.0,22.0,30.15,ENE,60,7.0,-999.0,79,-99.99,,,-99.99,,2013-02-26 12:41:00,
2013-02-26 12:52:00,28.0,22.0,30.15,ENE,60,7.0,-999.0,79,-99.99,,,-99.99,,2013-02-26 12:52:00,
2013-02-26 13:00:00,29.0,23.0,30.15,East,80,8.0,-999.0,77,-99.99,,,-99.99,,2013-02-26 13:00:00,
2013-02-26 13:21:00,29.0,23.0,30.15,East,80,8.0,-999.0,77,-99.99,,,-99.99,,2013-02-26 13:21:00,
2013-02-26 13:31:00,29.0,23.0,30.15,East,80,8.0,-999.0,77,-99.99,,,-99.99,,2013-02-26 13:31:00,
2013-02-26 13:42:00,29.0,23.0,30.15,East,80,8.0,-999.0,77,-99.99,,,-99.99,,2013-02-26 13:42:00,
2013-02-26 13:51:00,29.0,23.0,30.15,East,80,8.0,-999.0,77,-99.99,,,-99.99,,2013-02-26 13:51:00,
2013-02-26 14:00:00,32.0,24.0,30.15,East,90,8.0,-999.0,70,-99.99,,,-99.99,,2013-02-26 14:00:00,
2013-02-26 14:21:00,32.0,24.0,30.15,East,90,8.0,-999.0,70,-99.99,,,-99.99,,2013-02-26 14:21:00,
2013-02-26 14:31:00,32.0,24.0,30.15,East,90,8.0,-999.0,70,-99.99,,,-99.99,,2013-02-26 14:31:00,
2013-02-26 14:41:00,32.0,24.0,30.15,East,90,8.0,-999.0,70,-99.99,,,-99.99,,2013-02-26 14:41:00,
2013-02-26 14:52:00,32.0,24.0,30.15,East,90,8.0,-999.0,70,-99.99,,,-99.99,,2013-02-26 14:52:00,
2013-02-26 15:00:00,36.0,24.0,30.12,East,100,7.0,-999.0,62,-99.99,,,-99.99,,2013-02-26 15:00:00,
2013-02-26 15:21:00,36.0,24.0,30.12,East,100,7.0,-999.0,62,-99.99,,,-99.99,,2013-02-26 15:21:00,
2013-02-26 15:31:00,36.0,24.0,30.12,East,100,7.0,-999.0,62,-99.99,,,-99.99,,2013-02-26 15:31:00,
2013-02-26 15:41:00,36.0,24.0,30.12,East,100,7.0,-999.0,62,-99.99,,,-99.99,,2013-02-26 15:41:00,
2013-02-26 15:51:00,36.0,24.0,30.12,East,100,7.0,-999.0,62,-99.99,,,-99.99,,2013-02-26 15:51:00,
2013-02-26 16:00:00,39.0,25.0,30.08,ESE,110,7.0,-999.0,56,-99.99,,,-99.99,,2013-02-26 16:00:00,
2013-02-26 16:22:00,39.0,25.0,30.08,ESE,110,7.0,-999.0,56,-99.99,,,-99.99,,2013-02-26 16:22:00,
2013-02-26 16:31:00,39.0,25.0,30.08,ESE,110,7.0,-999.0,56,-99.99,,,-99.99,,2013-02-26 16:31:00,
2013-02-26 16:41:00,39.0,25.0,30.08,ESE,110,7.0,-999.0,56,-99.99,,,-99.99,,2013-02-26 16:41:00,
2013-02-26 16:51:00,39.0,25.0,30.08,ESE,110,7.0,-999.0,56,-99.99,,,-99.99,,2013-02-26 16:51:00,
2013-02-26 17:00:00,41.0,25.0,30.04,ESE,110,10.0,-999.0,52,-99.99,,,-99.99,,2013-02-26 17:00:00,
2013-02-26 17:21:00,41.0,25.0,30.04,ESE,110,10.0,-999.0,52,-99.99,,,-99.99,,2013-02-26 17:21:00,
2013-02-26 17:32:00,41.0,25.0,30.04,ESE,110,10.0,-999.0,52,-99.99,,,-99.99,,2013-02-26 17:32:00,
2013-02-26 17:41:00,41.0,25.0,30.04,ESE,110,10.0,-999.0,52,-99.99,,,-99.99,,2013-02-26 17:41:00,
2013-02-26 17:52:00,41.0,25.0,30.04,ESE,110,10.0,-999.0,52,-99.99,,,-99.99,,2013-02-26 17:52:00,
2013-02-26 18:00:00,39.0,26.0,30.01,East,80,17.0,-999.0,60,-99.99,,,-99.99,,2013-02-26 18:00:00,
2013-02-26 18:21:00,39.0,26.0,30.01,East,80,17.0,-999.0,60,-99.99,,,-99.99,,2013-02-26 18:21:00,
2013-02-26 18:31:00,39.0,26.0,30.01,East,80,17.0,-999.0,60,-99.99,,,-99.99,,2013-02-26 18:31:00,
2013-02-26 18:42:00,39.0,26.0,30.01,East,80,17.0,-999.0,60,-99.99,,,-99.99,,2013-02-26 18:42:00,
2013-02-26 18:52:00,39.0,26.0,30.01,East,80,17.0,-999.0,60,-99.99,,,-99.99,,2013-02-26 18:52:00,
2013-02-26 19:00:00,38.0,28.0,29.96,East,100,16.0,-999.0,66,-99.99,,,-99.99,,2013-02-26 19:00:00,
2013-02-26 19:21:00,38.0,28.0,29.96,East,100,16.0,-999.0,66,-99.99,,,-99.99,,2013-02-26 19:21:00,
2013-02-26 19:31:00,38.0,28.0,29.96,East,100,16.0,-999.0,66,-99.99,,,-99.99,,2013-02-26 19:31:00,
2013-02-26 19:41:00,38.0,28.0,29.96,East,100,16.0,-999.0,66,-99.99,,,-99.99,,2013-02-26 19:41:00,
2013-02-26 19:51:00,38.0,28.0,29.96,East,100,16.0,-999.0,66,-99.99,,,-99.99,,2013-02-26 19:51:00,
2013-02-26 20:00:00,37.0,28.0,29.93,East,90,16.0,-999.0,69,-99.99,,,-99.99,,2013-02-26 20:00:00,
2013-02-26 20:21:00,37.0,28.0,29.93,East,90,16.0,-999.0,69,-99.99,,,-99.99,,2013-02-26 20:21:00,
2013-02-26 20:31:00,37.0,28.0,29.93,East,90,16.0,-999.0,69,-99.99,,,-99.99,,2013-02-26 20:31:00,
2013-02-26 20:41:00,37.0,28.0,29.93,East,90,16.0,-999.0,69,-99.99,,,-99.99,,2013-02-26 20:41:00,
2013-02-26 20:51:00,37.0,28.0,29.93,East,90,16.0,-999.0,69,-99.99,,,-99.99,,2013-02-26 20:51:00,
2013-02-26 21:00:00,40.0,26.0,29.91,East,90,13.0,-999.0,55,-99.99,,,-99.99,,2013-02-26 21:00:00,
2013-02-26 21:21:00,40.0,26.0,29.91,East,90,13.0,-999.0,55,-99.99,,,-99.99,,2013-02-26 21:21:00,
2013-02-26 21:31:00,40.0,26.0,29.91,East,90,13.0,-999.0,55,-99.99,,,-99.99,,2013-02-26 21:31:00,
2013-02-26 21:41:00,40.0,26.0,29.91,East,90,13.0,-999.0,55,-99.99,,,-99.99,,2013-02-26 21:41:00,
2013-02-26 21:51:00,40.0,26.0,29.91,East,90,13.0,-999.0,55,-99.99,,,-99.99,,2013-02-26 21:51:00,
2013-02-26 22:00:00,38.0,27.0,29.88,East,100,16.0,-999.0,62,-99.99,,,-99.99,,2013-02-26 22:00:00,
2013-02-26 22:21:00,38.0,27.0,29.88,East,100,16.0,-999.0,62,-99.99,,,-99.99,,2013-02-26 22:21:00,
2013-02-26 22:31:00,38.0,27.0,29.88,East,100,16.0,-999.0,62,-99.99,,,-99.99,,2013-02-26 22:31:00,
2013-02-26 22:41:00,38.0,27.0,29.88,East,100,16.0,-999.0,62,-99.99,,,-99.99,,2013-02-26 22:41:00,
2013-02-26 22:51:00,38.0,27.0,29.88,East,100,16.0,-999.0,62,-99.99,,,-99.99,,2013-02-26 22:51:00,
2013-02-26 23:00:00,37.0,29.0,29.88,East,80,14.0,-999.0,73,-99.99,,,-99.99,,2013-02-26 23:00:00,
2013-02-26 23:21:00,37.0,29.0,29.88,East,80,14.0,-999.0,73,-99.99,,,-99.99,,2013-02-26 23:21:00,
2013-02-26 23:31:00,37.0,29.0,29.88,East,80,14.0,-999.0,73,-99.99,,,-99.99,,2013-02-26 23:31:00,
2013-02-26 23:41:00,37.0,29.0,29.88,East,80,14.0,-999.0,73,-99.99,,,-99.99,,2013-02-26 23:41:00,
2013-02-26 23:51:00,37.0,29.0,29.88,East,80,14.0,-999.0,73,-99.99,,,-99.99,,2013-02-26 23:51:00,